ZPTAI SBLJ-SBST
Flight info
| Callsign | ZPTAI |
|---|---|
| Flight time | 3h 26m |
| Altitude | FL090 |
| Route | UTBIT DARDI DOSMU PAINT UGOXO |
| Aircraft | C172/L-SG/C |
Departure
| Time | 2026-05-06 19:12 |
|---|---|
| Airport | Lages Airport (SBLJ) |
Arrival
| Time | 2026-05-06 22:38 |
|---|---|
| Airport | Santos Nero Moura Air Base / Guarujá Airport (SBST) |
| Time | Latitude | Longitude | Altitude | Speed | Heading |
|---|---|---|---|---|---|
| 2026-05-06 19:06 | -27.78159 | -50.28016 | 3069 ft | 0 kts | 57° |
| 2026-05-06 19:07 | -27.78165 | -50.28027 | 3069 ft | 0 kts | 57° |
| 2026-05-06 19:08 | -27.78158 | -50.28027 | 3069 ft | 5 kts | 306° |
| 2026-05-06 19:08 | -27.78201 | -50.28088 | 3069 ft | 15 kts | 237° |
| 2026-05-06 19:08 | -27.78263 | -50.28115 | 3069 ft | 6 kts | 152° |
| 2026-05-06 19:08 | -27.78324 | -50.28076 | 3069 ft | 19 kts | 147° |
| 2026-05-06 19:09 | -27.78473 | -50.27973 | 3069 ft | 28 kts | 149° |
| 2026-05-06 19:09 | -27.78647 | -50.27848 | 3069 ft | 30 kts | 148° |
| 2026-05-06 19:09 | -27.78777 | -50.27742 | 3069 ft | 12 kts | 173° |
| 2026-05-06 19:09 | -27.78780 | -50.27752 | 3069 ft | 0 kts | 330° |
| 2026-05-06 19:10 | -27.78774 | -50.27758 | 3069 ft | 9 kts | 316° |
| 2026-05-06 19:10 | -27.78625 | -50.27867 | 3069 ft | 41 kts | 318° |
| 2026-05-06 19:10 | -27.78307 | -50.28096 | 3069 ft | 65 kts | 326° |
| 2026-05-06 19:10 | -27.77894 | -50.28374 | 3138 ft | 67 kts | 327° |
| 2026-05-06 19:11 | -27.77537 | -50.28586 | 3229 ft | 62 kts | 322° |
| 2026-05-06 19:11 | -27.77358 | -50.28735 | 3281 ft | 60 kts | 315° |
| 2026-05-06 19:11 | -27.76947 | -50.28730 | 3315 ft | 73 kts | 38° |
| 2026-05-06 19:11 | -27.76727 | -50.28290 | 3412 ft | 70 kts | 43° |
| 2026-05-06 19:12 | -27.76454 | -50.27826 | 3509 ft | 72 kts | 47° |
| 2026-05-06 19:12 | -27.76174 | -50.27351 | 3609 ft | 73 kts | 46° |
| 2026-05-06 19:12 | -27.75890 | -50.26873 | 3707 ft | 75 kts | 47° |
| 2026-05-06 19:12 | -27.75598 | -50.26383 | 3805 ft | 76 kts | 47° |
| 2026-05-06 19:13 | -27.75300 | -50.25886 | 3894 ft | 78 kts | 48° |
| 2026-05-06 19:13 | -27.74991 | -50.25375 | 3976 ft | 80 kts | 48° |
| 2026-05-06 19:13 | -27.74670 | -50.24853 | 4054 ft | 83 kts | 48° |
| 2026-05-06 19:13 | -27.74333 | -50.24316 | 4128 ft | 85 kts | 48° |
| 2026-05-06 19:14 | -27.73988 | -50.23771 | 4197 ft | 86 kts | 48° |
| 2026-05-06 19:14 | -27.73638 | -50.23214 | 4262 ft | 88 kts | 49° |
| 2026-05-06 19:14 | -27.73288 | -50.22650 | 4328 ft | 88 kts | 49° |
| 2026-05-06 19:14 | -27.72946 | -50.22101 | 4426 ft | 84 kts | 49° |
| 2026-05-06 19:15 | -27.72615 | -50.21571 | 4532 ft | 80 kts | 51° |
| 2026-05-06 19:15 | -27.72304 | -50.21076 | 4638 ft | 77 kts | 51° |
| 2026-05-06 19:15 | -27.72003 | -50.20591 | 4740 ft | 74 kts | 51° |
| 2026-05-06 19:15 | -27.71713 | -50.20130 | 4833 ft | 71 kts | 51° |
| 2026-05-06 19:16 | -27.71432 | -50.19674 | 4920 ft | 70 kts | 50° |
| 2026-05-06 19:16 | -27.71162 | -50.19234 | 5011 ft | 68 kts | 50° |
| 2026-05-06 19:16 | -27.70896 | -50.18804 | 5096 ft | 66 kts | 50° |
| 2026-05-06 19:16 | -27.70637 | -50.18387 | 5176 ft | 65 kts | 57° |
| 2026-05-06 19:17 | -27.70380 | -50.17953 | 5230 ft | 68 kts | 57° |
| 2026-05-06 19:17 | -27.70135 | -50.17499 | 5294 ft | 67 kts | 47° |
| 2026-05-06 19:17 | -27.69886 | -50.16886 | 4922 ft | 120 kts | 67° |
| 2026-05-06 19:17 | -27.69465 | -50.16147 | 5037 ft | 103 kts | 49° |
| 2026-05-06 19:18 | -27.69061 | -50.15541 | 5140 ft | 92 kts | 52° |
| 2026-05-06 19:18 | -27.68686 | -50.14987 | 5208 ft | 88 kts | 57° |
| 2026-05-06 19:18 | -27.68320 | -50.14435 | 5260 ft | 89 kts | 56° |
| 2026-05-06 19:18 | -27.67962 | -50.13887 | 5349 ft | 85 kts | 49° |
| 2026-05-06 19:19 | -27.67624 | -50.13363 | 5449 ft | 80 kts | 48° |
| 2026-05-06 19:19 | -27.67308 | -50.12868 | 5545 ft | 76 kts | 47° |
| 2026-05-06 19:19 | -27.67016 | -50.12396 | 5637 ft | 71 kts | 45° |
| 2026-05-06 19:19 | -27.66764 | -50.11950 | 5712 ft | 67 kts | 41° |
| 2026-05-06 19:20 | -27.66434 | -50.11236 | 5321 ft | 120 kts | 53° |
| 2026-05-06 19:20 | -27.65959 | -50.10540 | 5462 ft | 108 kts | 49° |
| 2026-05-06 19:20 | -27.65499 | -50.09889 | 5572 ft | 103 kts | 48° |
| 2026-05-06 19:20 | -27.65064 | -50.09272 | 5688 ft | 99 kts | 48° |
| 2026-05-06 19:21 | -27.64643 | -50.08671 | 5809 ft | 96 kts | 48° |
| 2026-05-06 19:21 | -27.64242 | -50.08092 | 5930 ft | 92 kts | 48° |
| 2026-05-06 19:21 | -27.63856 | -50.07532 | 6050 ft | 89 kts | 48° |
| 2026-05-06 19:21 | -27.63488 | -50.06991 | 6167 ft | 86 kts | 47° |
| 2026-05-06 19:22 | -27.63133 | -50.06467 | 6283 ft | 83 kts | 46° |
| 2026-05-06 19:22 | -27.62789 | -50.05961 | 6395 ft | 79 kts | 46° |
| 2026-05-06 19:22 | -27.62468 | -50.05476 | 6501 ft | 76 kts | 46° |
| 2026-05-06 19:22 | -27.62170 | -50.05009 | 6618 ft | 69 kts | 41° |
| 2026-05-06 19:23 | -27.61904 | -50.04581 | 6707 ft | 65 kts | 38° |
| 2026-05-06 19:23 | -27.61664 | -50.04155 | 6649 ft | 80 kts | 51° |
| 2026-05-06 19:23 | -27.61247 | -50.03431 | 6360 ft | 113 kts | 46° |
| 2026-05-06 19:23 | -27.60771 | -50.02779 | 6477 ft | 104 kts | 45° |
| 2026-05-06 19:24 | -27.60322 | -50.02174 | 6570 ft | 98 kts | 44° |
| 2026-05-06 19:24 | -27.59898 | -50.01596 | 6664 ft | 94 kts | 44° |
| 2026-05-06 19:24 | -27.59494 | -50.01037 | 6760 ft | 90 kts | 44° |
| 2026-05-06 19:24 | -27.59103 | -50.00504 | 6859 ft | 87 kts | 43° |
| 2026-05-06 19:25 | -27.58727 | -49.99988 | 6958 ft | 84 kts | 43° |
| 2026-05-06 19:25 | -27.58370 | -49.99490 | 7055 ft | 80 kts | 43° |
| 2026-05-06 19:25 | -27.58028 | -49.99010 | 7150 ft | 77 kts | 42° |
| 2026-05-06 19:25 | -27.57701 | -49.98552 | 7242 ft | 74 kts | 41° |
| 2026-05-06 19:26 | -27.57393 | -49.98107 | 7331 ft | 70 kts | 41° |
| 2026-05-06 19:26 | -27.57102 | -49.97682 | 7414 ft | 67 kts | 40° |
| 2026-05-06 19:26 | -27.56837 | -49.97278 | 7496 ft | 62 kts | 37° |
| 2026-05-06 19:26 | -27.56603 | -49.96888 | 7530 ft | 63 kts | 40° |
| 2026-05-06 19:27 | -27.56222 | -49.96229 | 7087 ft | 115 kts | 44° |
| 2026-05-06 19:27 | -27.55730 | -49.95598 | 7198 ft | 103 kts | 43° |
| 2026-05-06 19:27 | -27.55268 | -49.95015 | 7279 ft | 97 kts | 42° |
| 2026-05-06 19:27 | -27.54836 | -49.94465 | 7359 ft | 92 kts | 42° |
| 2026-05-06 19:28 | -27.54419 | -49.93928 | 7436 ft | 89 kts | 42° |
| 2026-05-06 19:28 | -27.54024 | -49.93411 | 7514 ft | 86 kts | 43° |
| 2026-05-06 19:28 | -27.53644 | -49.92898 | 7596 ft | 84 kts | 42° |
| 2026-05-06 19:28 | -27.53277 | -49.92405 | 7676 ft | 81 kts | 42° |
| 2026-05-06 19:29 | -27.52923 | -49.91926 | 7757 ft | 79 kts | 42° |
| 2026-05-06 19:29 | -27.52578 | -49.91459 | 7836 ft | 76 kts | 42° |
| 2026-05-06 19:29 | -27.52249 | -49.91008 | 7913 ft | 74 kts | 41° |
| 2026-05-06 19:29 | -27.51931 | -49.90567 | 7988 ft | 71 kts | 41° |
| 2026-05-06 19:30 | -27.51627 | -49.90139 | 8062 ft | 69 kts | 40° |
| 2026-05-06 19:30 | -27.51333 | -49.89730 | 8132 ft | 66 kts | 39° |
| 2026-05-06 19:30 | -27.51046 | -49.89346 | 8199 ft | 62 kts | 34° |
| 2026-05-06 19:30 | -27.50765 | -49.88990 | 8260 ft | 59 kts | 33° |
| 2026-05-06 19:31 | -27.50508 | -49.88639 | 8313 ft | 57 kts | 33° |
| 2026-05-06 19:31 | -27.50268 | -49.88291 | 8337 ft | 57 kts | 32° |
| 2026-05-06 19:31 | -27.49794 | -49.87592 | 8376 ft | 57 kts | 32° |
| 2026-05-06 19:32 | -27.49556 | -49.87242 | 8396 ft | 56 kts | 32° |
| 2026-05-06 19:32 | -27.49318 | -49.86893 | 8414 ft | 56 kts | 32° |
| 2026-05-06 19:32 | -27.49079 | -49.86543 | 8433 ft | 56 kts | 32° |
| 2026-05-06 19:32 | -27.48841 | -49.86196 | 8451 ft | 56 kts | 32° |
| 2026-05-06 19:33 | -27.48602 | -49.85850 | 8468 ft | 56 kts | 32° |
| 2026-05-06 19:33 | -27.48362 | -49.85503 | 8486 ft | 56 kts | 32° |
| 2026-05-06 19:33 | -27.48123 | -49.85158 | 8503 ft | 56 kts | 32° |
| 2026-05-06 19:33 | -27.47884 | -49.84813 | 8520 ft | 56 kts | 32° |
| 2026-05-06 19:34 | -27.47646 | -49.84471 | 8537 ft | 56 kts | 32° |
| 2026-05-06 19:34 | -27.47406 | -49.84126 | 8554 ft | 56 kts | 32° |
| 2026-05-06 19:34 | -27.47167 | -49.83783 | 8572 ft | 56 kts | 32° |
| 2026-05-06 19:34 | -27.46928 | -49.83440 | 8589 ft | 56 kts | 32° |
| 2026-05-06 19:35 | -27.46689 | -49.83100 | 8605 ft | 56 kts | 32° |
| 2026-05-06 19:35 | -27.46449 | -49.82757 | 8622 ft | 56 kts | 32° |
| 2026-05-06 19:35 | -27.46209 | -49.82416 | 8639 ft | 56 kts | 32° |
| 2026-05-06 19:35 | -27.45970 | -49.82075 | 8656 ft | 56 kts | 32° |
| 2026-05-06 19:36 | -27.45731 | -49.81737 | 8672 ft | 56 kts | 32° |
| 2026-05-06 19:36 | -27.45491 | -49.81396 | 8688 ft | 55 kts | 32° |
| 2026-05-06 19:36 | -27.45253 | -49.81053 | 8704 ft | 56 kts | 32° |
| 2026-05-06 19:36 | -27.45017 | -49.80711 | 8720 ft | 56 kts | 33° |
| 2026-05-06 19:37 | -27.44782 | -49.80367 | 8723 ft | 58 kts | 30° |
| 2026-05-06 19:37 | -27.44326 | -49.79821 | 8238 ft | 114 kts | 40° |
| 2026-05-06 19:37 | -27.43791 | -49.79254 | 8330 ft | 102 kts | 38° |
| 2026-05-06 19:37 | -27.43452 | -49.78899 | 8368 ft | 98 kts | 38° |
| 2026-05-06 19:38 | -27.42814 | -49.78230 | 8455 ft | 91 kts | 38° |
| 2026-05-06 19:38 | -27.42361 | -49.77751 | 8511 ft | 88 kts | 38° |
| 2026-05-06 19:38 | -27.41918 | -49.77281 | 8557 ft | 88 kts | 36° |
| 2026-05-06 19:38 | -27.41466 | -49.76800 | 8607 ft | 89 kts | 37° |
| 2026-05-06 19:39 | -27.41030 | -49.76333 | 8698 ft | 84 kts | 36° |
| 2026-05-06 19:39 | -27.40625 | -49.75901 | 8799 ft | 78 kts | 38° |
| 2026-05-06 19:39 | -27.40233 | -49.75484 | 8862 ft | 77 kts | 39° |
| 2026-05-06 19:39 | -27.39855 | -49.75072 | 8926 ft | 75 kts | 39° |
| 2026-05-06 19:40 | -27.39484 | -49.74666 | 8987 ft | 74 kts | 39° |
| 2026-05-06 19:40 | -27.39105 | -49.74255 | 9019 ft | 77 kts | 39° |
| 2026-05-06 19:40 | -27.38708 | -49.73830 | 9032 ft | 81 kts | 39° |
| 2026-05-06 19:40 | -27.38284 | -49.73384 | 9031 ft | 86 kts | 39° |
| 2026-05-06 19:41 | -27.37839 | -49.72920 | 9024 ft | 89 kts | 39° |
| 2026-05-06 19:41 | -27.37379 | -49.72437 | 9016 ft | 92 kts | 40° |
| 2026-05-06 19:41 | -27.36914 | -49.71939 | 9011 ft | 93 kts | 40° |
| 2026-05-06 19:41 | -27.36442 | -49.71434 | 9007 ft | 94 kts | 40° |
| 2026-05-06 19:42 | -27.35970 | -49.70929 | 9005 ft | 95 kts | 40° |
| 2026-05-06 19:42 | -27.35491 | -49.70418 | 9003 ft | 95 kts | 40° |
| 2026-05-06 19:42 | -27.35013 | -49.69908 | 9003 ft | 95 kts | 40° |
| 2026-05-06 19:42 | -27.34536 | -49.69398 | 9002 ft | 95 kts | 40° |
| 2026-05-06 19:43 | -27.34059 | -49.68889 | 9002 ft | 95 kts | 40° |
| 2026-05-06 19:43 | -27.33581 | -49.68382 | 9006 ft | 94 kts | 43° |
| 2026-05-06 19:43 | -27.33102 | -49.67878 | 8996 ft | 95 kts | 47° |
| 2026-05-06 19:43 | -27.32620 | -49.67366 | 8998 ft | 95 kts | 47° |
| 2026-05-06 19:44 | -27.32138 | -49.66855 | 9003 ft | 95 kts | 46° |
| 2026-05-06 19:44 | -27.31657 | -49.66347 | 9003 ft | 95 kts | 46° |
| 2026-05-06 19:44 | -27.31180 | -49.65836 | 9003 ft | 95 kts | 46° |
| 2026-05-06 19:44 | -27.30699 | -49.65330 | 9001 ft | 95 kts | 45° |
| 2026-05-06 19:45 | -27.30218 | -49.64822 | 9000 ft | 95 kts | 45° |
| 2026-05-06 19:45 | -27.29742 | -49.64312 | 9000 ft | 95 kts | 45° |
| 2026-05-06 19:45 | -27.29266 | -49.63808 | 9001 ft | 94 kts | 44° |
| 2026-05-06 19:45 | -27.28786 | -49.63306 | 9000 ft | 94 kts | 44° |
| 2026-05-06 19:46 | -27.28309 | -49.62806 | 9000 ft | 94 kts | 44° |
| 2026-05-06 19:46 | -27.27831 | -49.62304 | 9001 ft | 94 kts | 44° |
| 2026-05-06 19:46 | -27.27355 | -49.61804 | 9001 ft | 94 kts | 44° |
| 2026-05-06 19:46 | -27.26876 | -49.61304 | 9001 ft | 94 kts | 44° |
| 2026-05-06 19:47 | -27.26403 | -49.60802 | 9000 ft | 94 kts | 45° |
| 2026-05-06 19:47 | -27.25930 | -49.60295 | 9001 ft | 94 kts | 45° |
| 2026-05-06 19:47 | -27.25455 | -49.59792 | 9001 ft | 94 kts | 45° |
| 2026-05-06 19:47 | -27.24976 | -49.59289 | 9000 ft | 94 kts | 45° |
| 2026-05-06 19:48 | -27.24501 | -49.58782 | 9001 ft | 94 kts | 45° |
| 2026-05-06 19:48 | -27.24027 | -49.58277 | 9001 ft | 95 kts | 39° |
| 2026-05-06 19:48 | -27.23547 | -49.57770 | 9002 ft | 95 kts | 40° |
| 2026-05-06 19:48 | -27.23073 | -49.57261 | 9003 ft | 95 kts | 40° |
| 2026-05-06 19:49 | -27.22597 | -49.56751 | 9004 ft | 95 kts | 40° |
| 2026-05-06 19:49 | -27.22120 | -49.56244 | 9004 ft | 95 kts | 40° |
| 2026-05-06 19:49 | -27.21642 | -49.55737 | 9003 ft | 95 kts | 40° |
| 2026-05-06 19:49 | -27.21164 | -49.55229 | 9003 ft | 95 kts | 40° |
| 2026-05-06 19:50 | -27.20685 | -49.54720 | 9004 ft | 95 kts | 40° |
| 2026-05-06 19:50 | -27.20207 | -49.54211 | 9004 ft | 95 kts | 40° |
| 2026-05-06 19:50 | -27.19728 | -49.53703 | 9004 ft | 95 kts | 40° |
| 2026-05-06 19:50 | -27.19250 | -49.53195 | 9004 ft | 95 kts | 40° |
| 2026-05-06 19:51 | -27.18772 | -49.52687 | 9004 ft | 95 kts | 40° |
| 2026-05-06 19:51 | -27.18293 | -49.52178 | 9004 ft | 95 kts | 40° |
| 2026-05-06 19:51 | -27.17816 | -49.51670 | 9004 ft | 95 kts | 40° |
| 2026-05-06 19:51 | -27.17337 | -49.51162 | 9004 ft | 95 kts | 40° |
| 2026-05-06 19:52 | -27.16860 | -49.50656 | 9004 ft | 95 kts | 40° |
| 2026-05-06 19:52 | -27.16390 | -49.50157 | 9004 ft | 95 kts | 40° |
| 2026-05-06 19:52 | -27.15902 | -49.49639 | 9004 ft | 95 kts | 40° |
| 2026-05-06 19:52 | -27.15423 | -49.49130 | 9003 ft | 95 kts | 40° |
| 2026-05-06 19:53 | -27.14946 | -49.48621 | 9004 ft | 95 kts | 40° |
| 2026-05-06 19:53 | -27.14468 | -49.48111 | 9004 ft | 95 kts | 40° |
| 2026-05-06 19:53 | -27.13990 | -49.47601 | 9004 ft | 95 kts | 40° |
| 2026-05-06 19:53 | -27.13512 | -49.47091 | 9004 ft | 95 kts | 40° |
| 2026-05-06 19:54 | -27.13035 | -49.46581 | 9004 ft | 95 kts | 40° |
| 2026-05-06 19:54 | -27.12561 | -49.46075 | 9004 ft | 95 kts | 40° |
| 2026-05-06 19:54 | -27.12091 | -49.45573 | 9004 ft | 95 kts | 40° |
| 2026-05-06 19:54 | -27.11601 | -49.45051 | 9008 ft | 94 kts | 43° |
| 2026-05-06 19:55 | -27.11119 | -49.44544 | 8995 ft | 96 kts | 47° |
| 2026-05-06 19:55 | -27.10638 | -49.44031 | 9003 ft | 96 kts | 47° |
| 2026-05-06 19:55 | -27.10158 | -49.43517 | 9005 ft | 96 kts | 47° |
| 2026-05-06 19:55 | -27.09680 | -49.43002 | 9005 ft | 96 kts | 47° |
| 2026-05-06 19:56 | -27.09197 | -49.42488 | 9005 ft | 96 kts | 46° |
| 2026-05-06 19:56 | -27.08709 | -49.41978 | 9003 ft | 96 kts | 46° |
| 2026-05-06 19:56 | -27.08222 | -49.41468 | 9003 ft | 96 kts | 46° |
| 2026-05-06 19:56 | -27.07735 | -49.40958 | 9003 ft | 96 kts | 46° |
| 2026-05-06 19:57 | -27.07249 | -49.40448 | 9003 ft | 96 kts | 47° |
| 2026-05-06 19:57 | -27.06770 | -49.39932 | 9008 ft | 95 kts | 44° |
| 2026-05-06 19:57 | -27.06293 | -49.39422 | 9003 ft | 96 kts | 40° |
| 2026-05-06 19:57 | -27.05812 | -49.38910 | 9004 ft | 95 kts | 40° |
| 2026-05-06 19:58 | -27.05334 | -49.38401 | 9005 ft | 95 kts | 40° |
| 2026-05-06 19:58 | -27.04855 | -49.37892 | 9005 ft | 95 kts | 40° |
| 2026-05-06 19:58 | -27.04375 | -49.37382 | 9005 ft | 95 kts | 40° |
| 2026-05-06 19:58 | -27.03897 | -49.36875 | 9006 ft | 95 kts | 40° |
| 2026-05-06 19:59 | -27.03417 | -49.36367 | 9006 ft | 95 kts | 40° |
| 2026-05-06 19:59 | -27.02939 | -49.35859 | 9006 ft | 95 kts | 40° |
| 2026-05-06 19:59 | -27.02460 | -49.35352 | 9006 ft | 95 kts | 40° |
| 2026-05-06 19:59 | -27.01981 | -49.34845 | 9006 ft | 95 kts | 40° |
| 2026-05-06 20:00 | -27.01502 | -49.34340 | 9006 ft | 95 kts | 40° |
| 2026-05-06 20:00 | -27.01022 | -49.33832 | 9006 ft | 95 kts | 40° |
| 2026-05-06 20:00 | -27.00544 | -49.33327 | 9006 ft | 95 kts | 40° |
| 2026-05-06 20:00 | -27.00064 | -49.32821 | 9006 ft | 95 kts | 40° |
| 2026-05-06 20:01 | -26.99583 | -49.32316 | 9006 ft | 95 kts | 40° |
| 2026-05-06 20:01 | -26.99104 | -49.31811 | 9006 ft | 95 kts | 40° |
| 2026-05-06 20:01 | -26.98625 | -49.31306 | 9006 ft | 95 kts | 40° |
| 2026-05-06 20:01 | -26.98146 | -49.30802 | 9006 ft | 95 kts | 40° |
| 2026-05-06 20:02 | -26.97665 | -49.30295 | 9006 ft | 95 kts | 40° |
| 2026-05-06 20:02 | -26.97186 | -49.29790 | 9007 ft | 95 kts | 40° |
| 2026-05-06 20:02 | -26.96707 | -49.29285 | 9007 ft | 95 kts | 40° |
| 2026-05-06 20:02 | -26.96228 | -49.28780 | 9007 ft | 95 kts | 40° |
| 2026-05-06 20:03 | -26.95747 | -49.28274 | 9007 ft | 95 kts | 40° |
| 2026-05-06 20:03 | -26.95268 | -49.27769 | 9007 ft | 95 kts | 40° |
| 2026-05-06 20:03 | -26.94789 | -49.27265 | 9007 ft | 95 kts | 40° |
| 2026-05-06 20:03 | -26.94309 | -49.26759 | 9007 ft | 95 kts | 40° |
| 2026-05-06 20:04 | -26.93830 | -49.26255 | 9007 ft | 95 kts | 40° |
| 2026-05-06 20:04 | -26.93350 | -49.25750 | 9007 ft | 95 kts | 40° |
| 2026-05-06 20:04 | -26.92870 | -49.25245 | 9007 ft | 95 kts | 40° |
| 2026-05-06 20:04 | -26.92391 | -49.24741 | 9007 ft | 95 kts | 40° |
| 2026-05-06 20:05 | -26.91910 | -49.24236 | 9007 ft | 95 kts | 40° |
| 2026-05-06 20:05 | -26.91431 | -49.23732 | 9007 ft | 95 kts | 40° |
| 2026-05-06 20:05 | -26.90952 | -49.23227 | 9007 ft | 95 kts | 40° |
| 2026-05-06 20:05 | -26.90471 | -49.22722 | 9007 ft | 95 kts | 40° |
| 2026-05-06 20:06 | -26.89991 | -49.22217 | 9007 ft | 95 kts | 40° |
| 2026-05-06 20:06 | -26.89511 | -49.21712 | 9009 ft | 94 kts | 42° |
| 2026-05-06 20:06 | -26.89036 | -49.21207 | 9006 ft | 95 kts | 40° |
| 2026-05-06 20:06 | -26.88557 | -49.20704 | 9008 ft | 95 kts | 40° |
| 2026-05-06 20:07 | -26.88077 | -49.20200 | 9009 ft | 95 kts | 40° |
| 2026-05-06 20:07 | -26.87598 | -49.19697 | 9009 ft | 95 kts | 40° |
| 2026-05-06 20:07 | -26.87118 | -49.19193 | 9009 ft | 95 kts | 40° |
| 2026-05-06 20:07 | -26.86639 | -49.18691 | 9009 ft | 95 kts | 40° |
| 2026-05-06 20:08 | -26.86160 | -49.18187 | 9009 ft | 95 kts | 40° |
| 2026-05-06 20:08 | -26.85679 | -49.17683 | 9009 ft | 95 kts | 40° |
| 2026-05-06 20:08 | -26.85199 | -49.17180 | 9009 ft | 95 kts | 40° |
| 2026-05-06 20:08 | -26.84719 | -49.16676 | 9009 ft | 95 kts | 40° |
| 2026-05-06 20:09 | -26.84238 | -49.16172 | 9009 ft | 95 kts | 40° |
| 2026-05-06 20:09 | -26.83759 | -49.15670 | 9009 ft | 95 kts | 40° |
| 2026-05-06 20:09 | -26.83279 | -49.15167 | 9009 ft | 95 kts | 40° |
| 2026-05-06 20:09 | -26.82798 | -49.14663 | 9009 ft | 95 kts | 40° |
| 2026-05-06 20:10 | -26.82318 | -49.14160 | 9009 ft | 95 kts | 40° |
| 2026-05-06 20:10 | -26.81838 | -49.13658 | 9009 ft | 95 kts | 40° |
| 2026-05-06 20:10 | -26.81357 | -49.13154 | 9009 ft | 95 kts | 40° |
| 2026-05-06 20:10 | -26.80876 | -49.12651 | 9009 ft | 95 kts | 40° |
| 2026-05-06 20:11 | -26.80396 | -49.12148 | 9011 ft | 95 kts | 41° |
| 2026-05-06 20:11 | -26.79921 | -49.11641 | 9009 ft | 95 kts | 41° |
| 2026-05-06 20:11 | -26.79446 | -49.11134 | 9008 ft | 95 kts | 41° |
| 2026-05-06 20:11 | -26.78971 | -49.10626 | 9009 ft | 95 kts | 41° |
| 2026-05-06 20:12 | -26.78496 | -49.10120 | 9010 ft | 94 kts | 41° |
| 2026-05-06 20:12 | -26.78021 | -49.09617 | 9010 ft | 94 kts | 41° |
| 2026-05-06 20:12 | -26.77543 | -49.09115 | 9011 ft | 94 kts | 41° |
| 2026-05-06 20:12 | -26.77069 | -49.08611 | 9011 ft | 94 kts | 42° |
| 2026-05-06 20:13 | -26.76597 | -49.08107 | 9011 ft | 94 kts | 42° |
| 2026-05-06 20:13 | -26.76122 | -49.07605 | 9011 ft | 94 kts | 42° |
| 2026-05-06 20:13 | -26.75649 | -49.07101 | 9012 ft | 94 kts | 43° |
| 2026-05-06 20:13 | -26.75178 | -49.06599 | 9012 ft | 94 kts | 43° |
| 2026-05-06 20:14 | -26.74703 | -49.06097 | 9012 ft | 94 kts | 44° |
| 2026-05-06 20:14 | -26.74233 | -49.05594 | 9013 ft | 94 kts | 44° |
| 2026-05-06 20:14 | -26.73759 | -49.05093 | 9014 ft | 94 kts | 44° |
| 2026-05-06 20:14 | -26.73285 | -49.04588 | 9014 ft | 94 kts | 45° |
| 2026-05-06 20:15 | -26.72813 | -49.04084 | 9015 ft | 94 kts | 45° |
| 2026-05-06 20:15 | -26.72336 | -49.03581 | 9016 ft | 95 kts | 45° |
| 2026-05-06 20:15 | -26.71860 | -49.03073 | 9016 ft | 95 kts | 46° |
| 2026-05-06 20:15 | -26.71388 | -49.02567 | 9021 ft | 94 kts | 41° |
| 2026-05-06 20:16 | -26.70912 | -49.02064 | 9026 ft | 94 kts | 41° |
| 2026-05-06 20:16 | -26.70437 | -49.01563 | 9028 ft | 94 kts | 41° |
| 2026-05-06 20:16 | -26.69960 | -49.01060 | 9028 ft | 95 kts | 41° |
| 2026-05-06 20:16 | -26.69481 | -49.00557 | 9028 ft | 95 kts | 41° |
| 2026-05-06 20:17 | -26.69002 | -49.00052 | 9027 ft | 95 kts | 41° |
| 2026-05-06 20:17 | -26.68523 | -48.99548 | 9027 ft | 95 kts | 41° |
| 2026-05-06 20:17 | -26.68043 | -48.99044 | 9027 ft | 95 kts | 41° |
| 2026-05-06 20:17 | -26.67563 | -48.98539 | 9027 ft | 95 kts | 41° |
| 2026-05-06 20:18 | -26.67083 | -48.98036 | 9025 ft | 95 kts | 46° |
| 2026-05-06 20:18 | -26.66598 | -48.97526 | 9017 ft | 96 kts | 46° |
| 2026-05-06 20:18 | -26.66113 | -48.97015 | 9018 ft | 96 kts | 46° |
| 2026-05-06 20:18 | -26.65629 | -48.96502 | 9017 ft | 96 kts | 46° |
| 2026-05-06 20:19 | -26.65147 | -48.95987 | 9016 ft | 96 kts | 46° |
| 2026-05-06 20:19 | -26.64667 | -48.95472 | 9015 ft | 96 kts | 45° |
| 2026-05-06 20:19 | -26.64182 | -48.94963 | 9014 ft | 96 kts | 45° |
| 2026-05-06 20:19 | -26.63701 | -48.94454 | 9014 ft | 95 kts | 45° |
| 2026-05-06 20:20 | -26.63222 | -48.93943 | 9013 ft | 95 kts | 45° |
| 2026-05-06 20:20 | -26.62745 | -48.93432 | 9012 ft | 95 kts | 45° |
| 2026-05-06 20:20 | -26.62267 | -48.92924 | 9011 ft | 95 kts | 44° |
| 2026-05-06 20:20 | -26.61787 | -48.92420 | 9010 ft | 95 kts | 44° |
| 2026-05-06 20:21 | -26.61309 | -48.91913 | 9010 ft | 95 kts | 44° |
| 2026-05-06 20:21 | -26.60836 | -48.91407 | 9011 ft | 94 kts | 44° |
| 2026-05-06 20:21 | -26.60360 | -48.90903 | 9011 ft | 94 kts | 43° |
| 2026-05-06 20:21 | -26.59881 | -48.90404 | 9011 ft | 94 kts | 43° |
| 2026-05-06 20:22 | -26.59403 | -48.89904 | 9011 ft | 94 kts | 43° |
| 2026-05-06 20:22 | -26.58926 | -48.89406 | 9011 ft | 94 kts | 43° |
| 2026-05-06 20:22 | -26.58449 | -48.88907 | 9011 ft | 94 kts | 43° |
| 2026-05-06 20:22 | -26.57970 | -48.88408 | 9011 ft | 94 kts | 43° |
| 2026-05-06 20:23 | -26.57492 | -48.87910 | 9011 ft | 94 kts | 43° |
| 2026-05-06 20:23 | -26.57016 | -48.87409 | 9011 ft | 94 kts | 44° |
| 2026-05-06 20:23 | -26.56545 | -48.86903 | 9011 ft | 94 kts | 44° |
| 2026-05-06 20:23 | -26.56072 | -48.86397 | 9009 ft | 95 kts | 42° |
| 2026-05-06 20:24 | -26.55598 | -48.85891 | 9012 ft | 94 kts | 42° |
| 2026-05-06 20:24 | -26.55126 | -48.85385 | 9014 ft | 94 kts | 42° |
| 2026-05-06 20:24 | -26.54649 | -48.84883 | 9015 ft | 94 kts | 41° |
| 2026-05-06 20:24 | -26.54167 | -48.84385 | 9013 ft | 95 kts | 41° |
| 2026-05-06 20:25 | -26.53683 | -48.83885 | 9015 ft | 95 kts | 41° |
| 2026-05-06 20:25 | -26.53200 | -48.83386 | 9019 ft | 95 kts | 41° |
| 2026-05-06 20:25 | -26.52717 | -48.82887 | 9021 ft | 95 kts | 41° |
| 2026-05-06 20:25 | -26.52235 | -48.82384 | 9021 ft | 95 kts | 41° |
| 2026-05-06 20:26 | -26.51752 | -48.81880 | 9021 ft | 95 kts | 41° |
| 2026-05-06 20:26 | -26.51267 | -48.81378 | 9020 ft | 95 kts | 41° |
| 2026-05-06 20:26 | -26.50784 | -48.80873 | 9019 ft | 96 kts | 41° |
| 2026-05-06 20:26 | -26.50298 | -48.80370 | 9020 ft | 96 kts | 41° |
| 2026-05-06 20:27 | -26.49810 | -48.79867 | 9019 ft | 96 kts | 41° |
| 2026-05-06 20:27 | -26.49323 | -48.79363 | 9019 ft | 96 kts | 41° |
| 2026-05-06 20:27 | -26.48839 | -48.78858 | 9019 ft | 96 kts | 41° |
| 2026-05-06 20:27 | -26.48353 | -48.78355 | 9019 ft | 96 kts | 41° |
| 2026-05-06 20:28 | -26.47866 | -48.77852 | 9019 ft | 96 kts | 41° |
| 2026-05-06 20:28 | -26.47379 | -48.77349 | 9019 ft | 96 kts | 41° |
| 2026-05-06 20:28 | -26.46892 | -48.76844 | 9019 ft | 96 kts | 41° |
| 2026-05-06 20:28 | -26.46405 | -48.76340 | 9019 ft | 96 kts | 41° |
| 2026-05-06 20:29 | -26.45918 | -48.75836 | 9019 ft | 96 kts | 41° |
| 2026-05-06 20:29 | -26.45432 | -48.75332 | 9019 ft | 96 kts | 41° |
| 2026-05-06 20:29 | -26.44951 | -48.74821 | 9017 ft | 96 kts | 42° |
| 2026-05-06 20:29 | -26.44464 | -48.74314 | 9012 ft | 96 kts | 41° |
| 2026-05-06 20:30 | -26.43972 | -48.73805 | 9009 ft | 97 kts | 41° |
| 2026-05-06 20:30 | -26.42997 | -48.72782 | 9007 ft | 96 kts | 41° |
| 2026-05-06 20:30 | -26.42510 | -48.72274 | 9007 ft | 96 kts | 42° |
| 2026-05-06 20:31 | -26.42023 | -48.71763 | 9008 ft | 96 kts | 41° |
| 2026-05-06 20:31 | -26.41537 | -48.71254 | 9008 ft | 96 kts | 41° |
| 2026-05-06 20:31 | -26.41050 | -48.70746 | 9008 ft | 96 kts | 41° |
| 2026-05-06 20:31 | -26.40562 | -48.70241 | 9008 ft | 96 kts | 41° |
| 2026-05-06 20:32 | -26.40075 | -48.69731 | 9008 ft | 96 kts | 42° |
| 2026-05-06 20:32 | -26.39587 | -48.69225 | 9008 ft | 96 kts | 41° |
| 2026-05-06 20:32 | -26.39098 | -48.68720 | 9008 ft | 96 kts | 42° |
| 2026-05-06 20:32 | -26.38610 | -48.68211 | 9008 ft | 96 kts | 41° |
| 2026-05-06 20:33 | -26.38122 | -48.67707 | 9008 ft | 96 kts | 41° |
| 2026-05-06 20:33 | -26.37633 | -48.67200 | 9008 ft | 96 kts | 41° |
| 2026-05-06 20:33 | -26.37144 | -48.66695 | 9008 ft | 96 kts | 41° |
| 2026-05-06 20:33 | -26.36656 | -48.66188 | 9008 ft | 96 kts | 41° |
| 2026-05-06 20:34 | -26.36167 | -48.65675 | 9004 ft | 97 kts | 41° |
| 2026-05-06 20:34 | -26.35681 | -48.65160 | 9008 ft | 97 kts | 41° |
| 2026-05-06 20:34 | -26.35194 | -48.64648 | 9010 ft | 97 kts | 40° |
| 2026-05-06 20:34 | -26.34701 | -48.64141 | 9010 ft | 97 kts | 40° |
| 2026-05-06 20:35 | -26.34206 | -48.63634 | 9010 ft | 97 kts | 40° |
| 2026-05-06 20:35 | -26.33711 | -48.63125 | 9010 ft | 97 kts | 41° |
| 2026-05-06 20:35 | -26.33218 | -48.62615 | 9011 ft | 97 kts | 41° |
| 2026-05-06 20:35 | -26.32726 | -48.62104 | 9009 ft | 97 kts | 41° |
| 2026-05-06 20:36 | -26.32234 | -48.61592 | 9009 ft | 97 kts | 41° |
| 2026-05-06 20:36 | -26.31743 | -48.61080 | 9010 ft | 97 kts | 41° |
| 2026-05-06 20:36 | -26.31253 | -48.60568 | 9010 ft | 97 kts | 41° |
| 2026-05-06 20:36 | -26.30762 | -48.60055 | 9010 ft | 97 kts | 41° |
| 2026-05-06 20:37 | -26.30270 | -48.59543 | 9010 ft | 97 kts | 40° |
| 2026-05-06 20:37 | -26.29774 | -48.59037 | 9010 ft | 97 kts | 41° |
| 2026-05-06 20:37 | -26.29281 | -48.58528 | 9010 ft | 97 kts | 40° |
| 2026-05-06 20:37 | -26.28787 | -48.58022 | 9010 ft | 97 kts | 41° |
| 2026-05-06 20:38 | -26.28290 | -48.57517 | 9010 ft | 97 kts | 41° |
| 2026-05-06 20:38 | -26.27794 | -48.57013 | 9010 ft | 97 kts | 41° |
| 2026-05-06 20:38 | -26.27316 | -48.56490 | 9011 ft | 97 kts | 44° |
| 2026-05-06 20:38 | -26.26844 | -48.55959 | 9009 ft | 97 kts | 44° |
| 2026-05-06 20:39 | -26.26369 | -48.55430 | 9008 ft | 97 kts | 44° |
| 2026-05-06 20:39 | -26.25893 | -48.54899 | 9008 ft | 97 kts | 45° |
| 2026-05-06 20:39 | -26.25423 | -48.54366 | 9008 ft | 97 kts | 45° |
| 2026-05-06 20:39 | -26.24949 | -48.53834 | 9008 ft | 97 kts | 45° |
| 2026-05-06 20:40 | -26.24474 | -48.53305 | 9007 ft | 97 kts | 45° |
| 2026-05-06 20:40 | -26.23997 | -48.52777 | 9007 ft | 97 kts | 45° |
| 2026-05-06 20:40 | -26.23524 | -48.52242 | 9007 ft | 97 kts | 46° |
| 2026-05-06 20:40 | -26.23052 | -48.51706 | 9007 ft | 97 kts | 46° |
| 2026-05-06 20:41 | -26.22579 | -48.51172 | 9009 ft | 97 kts | 44° |
| 2026-05-06 20:41 | -26.22101 | -48.50639 | 9003 ft | 98 kts | 44° |
| 2026-05-06 20:41 | -26.21621 | -48.50104 | 9001 ft | 98 kts | 44° |
| 2026-05-06 20:41 | -26.21141 | -48.49570 | 9000 ft | 98 kts | 44° |
| 2026-05-06 20:42 | -26.20663 | -48.49037 | 9000 ft | 98 kts | 44° |
| 2026-05-06 20:42 | -26.20183 | -48.48503 | 9000 ft | 98 kts | 44° |
| 2026-05-06 20:42 | -26.19703 | -48.47971 | 9000 ft | 98 kts | 44° |
| 2026-05-06 20:42 | -26.19224 | -48.47439 | 9000 ft | 98 kts | 44° |
| 2026-05-06 20:43 | -26.18741 | -48.46905 | 8993 ft | 99 kts | 47° |
| 2026-05-06 20:43 | -26.18251 | -48.46356 | 8984 ft | 101 kts | 48° |
| 2026-05-06 20:43 | -26.17754 | -48.45799 | 8987 ft | 103 kts | 45° |
| 2026-05-06 20:43 | -26.17246 | -48.45232 | 8999 ft | 104 kts | 44° |
| 2026-05-06 20:44 | -26.16732 | -48.44658 | 9005 ft | 105 kts | 44° |
| 2026-05-06 20:44 | -26.16211 | -48.44082 | 9006 ft | 107 kts | 43° |
| 2026-05-06 20:44 | -26.15685 | -48.43498 | 9004 ft | 107 kts | 42° |
| 2026-05-06 20:44 | -26.15154 | -48.42913 | 9000 ft | 108 kts | 42° |
| 2026-05-06 20:45 | -26.14626 | -48.42326 | 8998 ft | 108 kts | 42° |
| 2026-05-06 20:45 | -26.14099 | -48.41737 | 8996 ft | 107 kts | 41° |
| 2026-05-06 20:45 | -26.13569 | -48.41159 | 8994 ft | 107 kts | 41° |
| 2026-05-06 20:45 | -26.13043 | -48.40585 | 8993 ft | 106 kts | 41° |
| 2026-05-06 20:46 | -26.12518 | -48.40012 | 8992 ft | 105 kts | 41° |
| 2026-05-06 20:46 | -26.11997 | -48.39444 | 8994 ft | 105 kts | 41° |
| 2026-05-06 20:46 | -26.11479 | -48.38880 | 8990 ft | 104 kts | 41° |
| 2026-05-06 20:46 | -26.10962 | -48.38317 | 8990 ft | 104 kts | 41° |
| 2026-05-06 20:47 | -26.10448 | -48.37757 | 8991 ft | 104 kts | 41° |
| 2026-05-06 20:47 | -26.09933 | -48.37197 | 8991 ft | 104 kts | 41° |
| 2026-05-06 20:47 | -26.09420 | -48.36638 | 8991 ft | 104 kts | 41° |
| 2026-05-06 20:47 | -26.08906 | -48.36078 | 8991 ft | 104 kts | 41° |
| 2026-05-06 20:48 | -26.08391 | -48.35516 | 8991 ft | 104 kts | 41° |
| 2026-05-06 20:48 | -26.07876 | -48.34956 | 8991 ft | 104 kts | 41° |
| 2026-05-06 20:48 | -26.07357 | -48.34392 | 8991 ft | 104 kts | 41° |
| 2026-05-06 20:48 | -26.06838 | -48.33829 | 8991 ft | 105 kts | 41° |
| 2026-05-06 20:49 | -26.06323 | -48.33256 | 8991 ft | 105 kts | 42° |
| 2026-05-06 20:49 | -26.05806 | -48.32678 | 8991 ft | 106 kts | 42° |
| 2026-05-06 20:49 | -26.05288 | -48.32102 | 8991 ft | 106 kts | 42° |
| 2026-05-06 20:49 | -26.04766 | -48.31523 | 8991 ft | 106 kts | 42° |
| 2026-05-06 20:50 | -26.04242 | -48.30944 | 8991 ft | 107 kts | 42° |
| 2026-05-06 20:50 | -26.03715 | -48.30363 | 8991 ft | 107 kts | 42° |
| 2026-05-06 20:50 | -26.03186 | -48.29783 | 8990 ft | 107 kts | 42° |
| 2026-05-06 20:50 | -26.02654 | -48.29201 | 8990 ft | 108 kts | 42° |
| 2026-05-06 20:51 | -26.02120 | -48.28620 | 8990 ft | 108 kts | 42° |
| 2026-05-06 20:51 | -26.01586 | -48.28040 | 8990 ft | 108 kts | 42° |
| 2026-05-06 20:51 | -26.01050 | -48.27455 | 8988 ft | 108 kts | 45° |
| 2026-05-06 20:51 | -26.00516 | -48.26866 | 8991 ft | 108 kts | 45° |
| 2026-05-06 20:52 | -25.99983 | -48.26275 | 8991 ft | 109 kts | 45° |
| 2026-05-06 20:52 | -25.99449 | -48.25683 | 8990 ft | 109 kts | 45° |
| 2026-05-06 20:52 | -25.98913 | -48.25091 | 8990 ft | 109 kts | 45° |
| 2026-05-06 20:52 | -25.98376 | -48.24500 | 8990 ft | 109 kts | 45° |
| 2026-05-06 20:53 | -25.97838 | -48.23911 | 8990 ft | 109 kts | 45° |
| 2026-05-06 20:53 | -25.97301 | -48.23323 | 8990 ft | 109 kts | 45° |
| 2026-05-06 20:53 | -25.96768 | -48.22741 | 8990 ft | 109 kts | 45° |
| 2026-05-06 20:53 | -25.96226 | -48.22152 | 8990 ft | 108 kts | 45° |
| 2026-05-06 20:54 | -25.95688 | -48.21568 | 8990 ft | 108 kts | 45° |
| 2026-05-06 20:54 | -25.95150 | -48.20986 | 8990 ft | 108 kts | 45° |
| 2026-05-06 20:54 | -25.94613 | -48.20405 | 8990 ft | 108 kts | 45° |
| 2026-05-06 20:54 | -25.94077 | -48.19827 | 8990 ft | 108 kts | 45° |
| 2026-05-06 20:55 | -25.93541 | -48.19247 | 8990 ft | 108 kts | 45° |
| 2026-05-06 20:55 | -25.93005 | -48.18670 | 8990 ft | 108 kts | 45° |
| 2026-05-06 20:55 | -25.92470 | -48.18093 | 8990 ft | 107 kts | 45° |
| 2026-05-06 20:55 | -25.91936 | -48.17518 | 8990 ft | 107 kts | 45° |
| 2026-05-06 20:56 | -25.91400 | -48.16940 | 8990 ft | 107 kts | 45° |
| 2026-05-06 20:56 | -25.90866 | -48.16365 | 8990 ft | 107 kts | 45° |
| 2026-05-06 20:56 | -25.90332 | -48.15790 | 8991 ft | 107 kts | 45° |
| 2026-05-06 20:56 | -25.89798 | -48.15215 | 8989 ft | 107 kts | 45° |
| 2026-05-06 20:57 | -25.89263 | -48.14639 | 8988 ft | 107 kts | 45° |
| 2026-05-06 20:57 | -25.88729 | -48.14064 | 8988 ft | 107 kts | 45° |
| 2026-05-06 20:57 | -25.88195 | -48.13489 | 8987 ft | 107 kts | 45° |
| 2026-05-06 20:57 | -25.87662 | -48.12914 | 8986 ft | 107 kts | 45° |
| 2026-05-06 20:58 | -25.87128 | -48.12340 | 8985 ft | 107 kts | 45° |
| 2026-05-06 20:58 | -25.86594 | -48.11765 | 8984 ft | 107 kts | 45° |
| 2026-05-06 20:58 | -25.86061 | -48.11191 | 8983 ft | 107 kts | 45° |
| 2026-05-06 20:58 | -25.85527 | -48.10616 | 8983 ft | 107 kts | 45° |
| 2026-05-06 20:59 | -25.84994 | -48.10041 | 8982 ft | 107 kts | 45° |
| 2026-05-06 20:59 | -25.84460 | -48.09466 | 8981 ft | 107 kts | 45° |
| 2026-05-06 20:59 | -25.83927 | -48.08892 | 8980 ft | 107 kts | 45° |
| 2026-05-06 20:59 | -25.83399 | -48.08317 | 8981 ft | 107 kts | 44° |
| 2026-05-06 21:00 | -25.82865 | -48.07744 | 8972 ft | 107 kts | 44° |
| 2026-05-06 21:00 | -25.82332 | -48.07173 | 8970 ft | 107 kts | 44° |
| 2026-05-06 21:00 | -25.81798 | -48.06603 | 8970 ft | 106 kts | 44° |
| 2026-05-06 21:00 | -25.81267 | -48.06034 | 8970 ft | 106 kts | 44° |
| 2026-05-06 21:01 | -25.80737 | -48.05467 | 8971 ft | 106 kts | 44° |
| 2026-05-06 21:01 | -25.80208 | -48.04901 | 8971 ft | 106 kts | 44° |
| 2026-05-06 21:01 | -25.79680 | -48.04333 | 8969 ft | 106 kts | 45° |
| 2026-05-06 21:01 | -25.79152 | -48.03763 | 8975 ft | 106 kts | 45° |
| 2026-05-06 21:02 | -25.78627 | -48.03195 | 8979 ft | 106 kts | 45° |
| 2026-05-06 21:02 | -25.78101 | -48.02627 | 8980 ft | 106 kts | 45° |
| 2026-05-06 21:02 | -25.77573 | -48.02057 | 8981 ft | 106 kts | 45° |
| 2026-05-06 21:02 | -25.77046 | -48.01488 | 8981 ft | 106 kts | 45° |
| 2026-05-06 21:03 | -25.76518 | -48.00917 | 8981 ft | 106 kts | 45° |
| 2026-05-06 21:03 | -25.75991 | -48.00347 | 8982 ft | 106 kts | 45° |
| 2026-05-06 21:03 | -25.75464 | -47.99778 | 8982 ft | 106 kts | 45° |
| 2026-05-06 21:03 | -25.74936 | -47.99207 | 8982 ft | 106 kts | 45° |
| 2026-05-06 21:04 | -25.74409 | -47.98639 | 8985 ft | 106 kts | 45° |
| 2026-05-06 21:04 | -25.73881 | -47.98069 | 8985 ft | 106 kts | 45° |
| 2026-05-06 21:04 | -25.73354 | -47.97500 | 8985 ft | 106 kts | 45° |
| 2026-05-06 21:04 | -25.72827 | -47.96931 | 8985 ft | 106 kts | 45° |
| 2026-05-06 21:05 | -25.72299 | -47.96360 | 8985 ft | 106 kts | 45° |
| 2026-05-06 21:05 | -25.71773 | -47.95792 | 8985 ft | 106 kts | 45° |
| 2026-05-06 21:05 | -25.71245 | -47.95222 | 8985 ft | 106 kts | 45° |
| 2026-05-06 21:05 | -25.70718 | -47.94652 | 8985 ft | 106 kts | 45° |
| 2026-05-06 21:06 | -25.70191 | -47.94083 | 8985 ft | 106 kts | 45° |
| 2026-05-06 21:06 | -25.69663 | -47.93513 | 8985 ft | 106 kts | 45° |
| 2026-05-06 21:06 | -25.69136 | -47.92944 | 8985 ft | 106 kts | 45° |
| 2026-05-06 21:06 | -25.68609 | -47.92374 | 8987 ft | 106 kts | 45° |
| 2026-05-06 21:07 | -25.68085 | -47.91805 | 8984 ft | 106 kts | 45° |
| 2026-05-06 21:07 | -25.67551 | -47.91241 | 8984 ft | 106 kts | 44° |
| 2026-05-06 21:07 | -25.67018 | -47.90682 | 8984 ft | 106 kts | 44° |
| 2026-05-06 21:07 | -25.66483 | -47.90121 | 8984 ft | 106 kts | 44° |
| 2026-05-06 21:08 | -25.65953 | -47.89560 | 8983 ft | 106 kts | 44° |
| 2026-05-06 21:08 | -25.65422 | -47.88995 | 8979 ft | 106 kts | 44° |
| 2026-05-06 21:08 | -25.64891 | -47.88430 | 8978 ft | 106 kts | 44° |
| 2026-05-06 21:08 | -25.64360 | -47.87865 | 8977 ft | 106 kts | 44° |
| 2026-05-06 21:09 | -25.63830 | -47.87300 | 8978 ft | 106 kts | 44° |
| 2026-05-06 21:09 | -25.63301 | -47.86737 | 8978 ft | 106 kts | 44° |
| 2026-05-06 21:09 | -25.62771 | -47.86174 | 8978 ft | 106 kts | 44° |
| 2026-05-06 21:09 | -25.62243 | -47.85611 | 8978 ft | 106 kts | 44° |
| 2026-05-06 21:10 | -25.61713 | -47.85047 | 8978 ft | 106 kts | 44° |
| 2026-05-06 21:10 | -25.61185 | -47.84485 | 8978 ft | 106 kts | 44° |
| 2026-05-06 21:10 | -25.60655 | -47.83921 | 8978 ft | 106 kts | 44° |
| 2026-05-06 21:10 | -25.60126 | -47.83359 | 8978 ft | 106 kts | 44° |
| 2026-05-06 21:11 | -25.59597 | -47.82796 | 8978 ft | 106 kts | 44° |
| 2026-05-06 21:11 | -25.59067 | -47.82232 | 8978 ft | 106 kts | 44° |
| 2026-05-06 21:11 | -25.58539 | -47.81669 | 8978 ft | 106 kts | 44° |
| 2026-05-06 21:11 | -25.58010 | -47.81106 | 8978 ft | 106 kts | 45° |
| 2026-05-06 21:12 | -25.57478 | -47.80547 | 8982 ft | 105 kts | 44° |
| 2026-05-06 21:12 | -25.56945 | -47.79991 | 8989 ft | 105 kts | 44° |
| 2026-05-06 21:12 | -25.56415 | -47.79439 | 8992 ft | 105 kts | 44° |
| 2026-05-06 21:12 | -25.55883 | -47.78886 | 8993 ft | 105 kts | 44° |
| 2026-05-06 21:13 | -25.55349 | -47.78330 | 8993 ft | 106 kts | 44° |
| 2026-05-06 21:13 | -25.54816 | -47.77776 | 8992 ft | 106 kts | 44° |
| 2026-05-06 21:13 | -25.54280 | -47.77218 | 8992 ft | 106 kts | 44° |
| 2026-05-06 21:13 | -25.53745 | -47.76662 | 8992 ft | 106 kts | 44° |
| 2026-05-06 21:14 | -25.53210 | -47.76104 | 8992 ft | 106 kts | 44° |
| 2026-05-06 21:14 | -25.52676 | -47.75548 | 8992 ft | 106 kts | 44° |
| 2026-05-06 21:14 | -25.52139 | -47.74990 | 8992 ft | 106 kts | 44° |
| 2026-05-06 21:14 | -25.51605 | -47.74434 | 8992 ft | 106 kts | 44° |
| 2026-05-06 21:15 | -25.51069 | -47.73876 | 8992 ft | 106 kts | 44° |
| 2026-05-06 21:15 | -25.50535 | -47.73321 | 8992 ft | 106 kts | 44° |
| 2026-05-06 21:15 | -25.49999 | -47.72763 | 8992 ft | 106 kts | 44° |
| 2026-05-06 21:15 | -25.49464 | -47.72207 | 8992 ft | 106 kts | 44° |
| 2026-05-06 21:16 | -25.48928 | -47.71650 | 8992 ft | 106 kts | 44° |
| 2026-05-06 21:16 | -25.48394 | -47.71092 | 8993 ft | 106 kts | 44° |
| 2026-05-06 21:16 | -25.47861 | -47.70535 | 8990 ft | 106 kts | 44° |
| 2026-05-06 21:16 | -25.47327 | -47.69975 | 8989 ft | 106 kts | 44° |
| 2026-05-06 21:17 | -25.46793 | -47.69417 | 8990 ft | 106 kts | 44° |
| 2026-05-06 21:17 | -25.46262 | -47.68860 | 8992 ft | 105 kts | 44° |
| 2026-05-06 21:17 | -25.45731 | -47.68303 | 8992 ft | 105 kts | 44° |
| 2026-05-06 21:17 | -25.45199 | -47.67745 | 8992 ft | 105 kts | 44° |
| 2026-05-06 21:18 | -25.44669 | -47.67188 | 8992 ft | 105 kts | 44° |
| 2026-05-06 21:18 | -25.44137 | -47.66630 | 8992 ft | 105 kts | 44° |
| 2026-05-06 21:18 | -25.43606 | -47.66073 | 8992 ft | 106 kts | 44° |
| 2026-05-06 21:18 | -25.43069 | -47.65521 | 8992 ft | 106 kts | 43° |
| 2026-05-06 21:19 | -25.42529 | -47.64974 | 8992 ft | 106 kts | 43° |
| 2026-05-06 21:19 | -25.41989 | -47.64428 | 8992 ft | 106 kts | 43° |
| 2026-05-06 21:19 | -25.41449 | -47.63881 | 8992 ft | 106 kts | 43° |
| 2026-05-06 21:19 | -25.40908 | -47.63334 | 8993 ft | 105 kts | 43° |
| 2026-05-06 21:20 | -25.40368 | -47.62787 | 8993 ft | 105 kts | 43° |
| 2026-05-06 21:20 | -25.40009 | -47.62424 | 8993 ft | 105 kts | 43° |
| 2026-05-06 21:20 | -25.39296 | -47.61685 | 8995 ft | 105 kts | 44° |
| 2026-05-06 21:20 | -25.38765 | -47.61131 | 8996 ft | 105 kts | 44° |
| 2026-05-06 21:21 | -25.38226 | -47.60586 | 8997 ft | 105 kts | 43° |
| 2026-05-06 21:21 | -25.37686 | -47.60041 | 8997 ft | 105 kts | 44° |
| 2026-05-06 21:21 | -25.37149 | -47.59493 | 8998 ft | 105 kts | 43° |
| 2026-05-06 21:21 | -25.36611 | -47.58948 | 8998 ft | 105 kts | 44° |
| 2026-05-06 21:22 | -25.36072 | -47.58401 | 8999 ft | 105 kts | 43° |
| 2026-05-06 21:22 | -25.35534 | -47.57854 | 8999 ft | 105 kts | 43° |
| 2026-05-06 21:22 | -25.34996 | -47.57303 | 8995 ft | 106 kts | 44° |
| 2026-05-06 21:22 | -25.34459 | -47.56749 | 8997 ft | 106 kts | 44° |
| 2026-05-06 21:23 | -25.33923 | -47.56194 | 8997 ft | 106 kts | 44° |
| 2026-05-06 21:23 | -25.33387 | -47.55640 | 8996 ft | 106 kts | 44° |
| 2026-05-06 21:23 | -25.32841 | -47.55092 | 8996 ft | 106 kts | 43° |
| 2026-05-06 21:23 | -25.32527 | -47.54778 | 8996 ft | 106 kts | 43° |
| 2026-05-06 21:25 | -25.32145 | -47.54396 | 8996 ft | 106 kts | 44° |
| 2026-05-06 21:26 | -25.31602 | -47.53846 | 8996 ft | 106 kts | 43° |
| 2026-05-06 21:26 | -25.31057 | -47.53301 | 8998 ft | 106 kts | 43° |
| 2026-05-06 21:26 | -25.30514 | -47.52758 | 9002 ft | 105 kts | 43° |
| 2026-05-06 21:26 | -25.29973 | -47.52216 | 9002 ft | 105 kts | 43° |
| 2026-05-06 21:27 | -25.29430 | -47.51672 | 9003 ft | 105 kts | 43° |
| 2026-05-06 21:27 | -25.28889 | -47.51130 | 9002 ft | 106 kts | 43° |
| 2026-05-06 21:27 | -25.28346 | -47.50587 | 9002 ft | 106 kts | 43° |
| 2026-05-06 21:27 | -25.27805 | -47.50040 | 9001 ft | 106 kts | 43° |
| 2026-05-06 21:28 | -25.27262 | -47.49495 | 9001 ft | 106 kts | 43° |
| 2026-05-06 21:28 | -25.26720 | -47.48948 | 9000 ft | 106 kts | 44° |
| 2026-05-06 21:28 | -25.26177 | -47.48404 | 9001 ft | 106 kts | 43° |
| 2026-05-06 21:28 | -25.25635 | -47.47861 | 9000 ft | 106 kts | 43° |
| 2026-05-06 21:29 | -25.25093 | -47.47313 | 9000 ft | 106 kts | 43° |
| 2026-05-06 21:29 | -25.24549 | -47.46769 | 9000 ft | 106 kts | 43° |
| 2026-05-06 21:29 | -25.24005 | -47.46225 | 9000 ft | 106 kts | 44° |
| 2026-05-06 21:29 | -25.23464 | -47.45679 | 9000 ft | 106 kts | 43° |
| 2026-05-06 21:30 | -25.22896 | -47.45166 | 9001 ft | 106 kts | 37° |
| 2026-05-06 21:30 | -25.22290 | -47.44708 | 9001 ft | 106 kts | 34° |
| 2026-05-06 21:30 | -25.21672 | -47.44261 | 9000 ft | 106 kts | 34° |
| 2026-05-06 21:30 | -25.21056 | -47.43817 | 9000 ft | 106 kts | 34° |
| 2026-05-06 21:31 | -25.20440 | -47.43373 | 9001 ft | 106 kts | 34° |
| 2026-05-06 21:31 | -25.19825 | -47.42930 | 9002 ft | 106 kts | 34° |
| 2026-05-06 21:31 | -25.19210 | -47.42486 | 9002 ft | 106 kts | 34° |
| 2026-05-06 21:31 | -25.18597 | -47.42044 | 9002 ft | 106 kts | 34° |
| 2026-05-06 21:32 | -25.17983 | -47.41599 | 9003 ft | 106 kts | 34° |
| 2026-05-06 21:32 | -25.16761 | -47.40713 | 9004 ft | 105 kts | 34° |
| 2026-05-06 21:32 | -25.16151 | -47.40269 | 9005 ft | 105 kts | 34° |
| 2026-05-06 21:33 | -25.15543 | -47.39825 | 9006 ft | 105 kts | 34° |
| 2026-05-06 21:33 | -25.14936 | -47.39381 | 9006 ft | 105 kts | 34° |
| 2026-05-06 21:33 | -25.14331 | -47.38937 | 9007 ft | 105 kts | 34° |
| 2026-05-06 21:33 | -25.13727 | -47.38492 | 9007 ft | 105 kts | 34° |
| 2026-05-06 21:34 | -25.13123 | -47.38051 | 9012 ft | 104 kts | 33° |
| 2026-05-06 21:34 | -25.12519 | -47.37612 | 9014 ft | 104 kts | 33° |
| 2026-05-06 21:34 | -25.11915 | -47.37173 | 9015 ft | 104 kts | 33° |
| 2026-05-06 21:34 | -25.11312 | -47.36735 | 9015 ft | 104 kts | 33° |
| 2026-05-06 21:35 | -25.10709 | -47.36296 | 9015 ft | 104 kts | 33° |
| 2026-05-06 21:35 | -25.10104 | -47.35857 | 9015 ft | 104 kts | 33° |
| 2026-05-06 21:35 | -25.09500 | -47.35418 | 9015 ft | 104 kts | 33° |
| 2026-05-06 21:35 | -25.08896 | -47.34979 | 9015 ft | 104 kts | 33° |
| 2026-05-06 21:36 | -25.08291 | -47.34539 | 9015 ft | 104 kts | 33° |
| 2026-05-06 21:36 | -25.07687 | -47.34100 | 9016 ft | 104 kts | 33° |
| 2026-05-06 21:36 | -25.07085 | -47.33663 | 9019 ft | 104 kts | 33° |
| 2026-05-06 21:36 | -25.06484 | -47.33227 | 9020 ft | 104 kts | 33° |
| 2026-05-06 21:37 | -25.05882 | -47.32790 | 9021 ft | 104 kts | 33° |
| 2026-05-06 21:37 | -25.05281 | -47.32354 | 9022 ft | 104 kts | 33° |
| 2026-05-06 21:37 | -25.04690 | -47.31926 | 9023 ft | 104 kts | 33° |
| 2026-05-06 21:37 | -25.04090 | -47.31493 | 9027 ft | 103 kts | 33° |
| 2026-05-06 21:38 | -25.03491 | -47.31061 | 9029 ft | 103 kts | 33° |
| 2026-05-06 21:38 | -25.02891 | -47.30628 | 9029 ft | 103 kts | 33° |
| 2026-05-06 21:38 | -25.02292 | -47.30196 | 9029 ft | 103 kts | 33° |
| 2026-05-06 21:38 | -25.01693 | -47.29764 | 9030 ft | 103 kts | 33° |
| 2026-05-06 21:39 | -25.01093 | -47.29331 | 9029 ft | 103 kts | 33° |
| 2026-05-06 21:39 | -25.00494 | -47.28899 | 9029 ft | 103 kts | 33° |
| 2026-05-06 21:39 | -24.99893 | -47.28469 | 9030 ft | 103 kts | 32° |
| 2026-05-06 21:39 | -24.99286 | -47.28047 | 9030 ft | 103 kts | 32° |
| 2026-05-06 21:40 | -24.98678 | -47.27627 | 9029 ft | 103 kts | 32° |
| 2026-05-06 21:40 | -24.98074 | -47.27208 | 9030 ft | 103 kts | 32° |
| 2026-05-06 21:40 | -24.97464 | -47.26785 | 9030 ft | 103 kts | 32° |
| 2026-05-06 21:40 | -24.96858 | -47.26365 | 9030 ft | 103 kts | 32° |
| 2026-05-06 21:41 | -24.96250 | -47.25944 | 9030 ft | 103 kts | 32° |
| 2026-05-06 21:41 | -24.95642 | -47.25523 | 9032 ft | 103 kts | 32° |
| 2026-05-06 21:41 | -24.95038 | -47.25107 | 9035 ft | 103 kts | 32° |
| 2026-05-06 21:41 | -24.94432 | -47.24689 | 9037 ft | 103 kts | 32° |
| 2026-05-06 21:42 | -24.93828 | -47.24273 | 9038 ft | 103 kts | 32° |
| 2026-05-06 21:42 | -24.93223 | -47.23856 | 9038 ft | 103 kts | 32° |
| 2026-05-06 21:42 | -24.92619 | -47.23441 | 9039 ft | 103 kts | 32° |
| 2026-05-06 21:42 | -24.92013 | -47.23024 | 9040 ft | 103 kts | 32° |
| 2026-05-06 21:43 | -24.91409 | -47.22609 | 9040 ft | 103 kts | 32° |
| 2026-05-06 21:43 | -24.90826 | -47.22199 | 9043 ft | 102 kts | 33° |
| 2026-05-06 21:43 | -24.90212 | -47.21761 | 9045 ft | 102 kts | 33° |
| 2026-05-06 21:43 | -24.89628 | -47.21354 | 9045 ft | 102 kts | 32° |
| 2026-05-06 21:44 | -24.89050 | -47.20958 | 9045 ft | 103 kts | 32° |
| 2026-05-06 21:44 | -24.88445 | -47.20544 | 9044 ft | 103 kts | 32° |
| 2026-05-06 21:44 | -24.87874 | -47.20153 | 9045 ft | 103 kts | 32° |
| 2026-05-06 21:44 | -24.87338 | -47.19786 | 9045 ft | 103 kts | 32° |
| 2026-05-06 21:45 | -24.86785 | -47.19408 | 9046 ft | 102 kts | 32° |
| 2026-05-06 21:45 | -24.86183 | -47.18997 | 9028 ft | 104 kts | 32° |
| 2026-05-06 21:45 | -24.85770 | -47.18715 | 9012 ft | 105 kts | 32° |
| 2026-05-06 21:45 | -24.85329 | -47.18415 | 9004 ft | 105 kts | 32° |
| 2026-05-06 21:46 | -24.84800 | -47.18050 | 9001 ft | 104 kts | 33° |
| 2026-05-06 21:46 | -24.84195 | -47.17623 | 9002 ft | 103 kts | 33° |
| 2026-05-06 21:46 | -24.83592 | -47.17197 | 9006 ft | 103 kts | 33° |
| 2026-05-06 21:46 | -24.82993 | -47.16776 | 9010 ft | 102 kts | 33° |
| 2026-05-06 21:47 | -24.82396 | -47.16357 | 9013 ft | 102 kts | 33° |
| 2026-05-06 21:47 | -24.81800 | -47.15940 | 9017 ft | 102 kts | 33° |
| 2026-05-06 21:47 | -24.81206 | -47.15525 | 9020 ft | 101 kts | 33° |
| 2026-05-06 21:47 | -24.80611 | -47.15112 | 9023 ft | 101 kts | 33° |
| 2026-05-06 21:48 | -24.80018 | -47.14700 | 9025 ft | 101 kts | 33° |
| 2026-05-06 21:48 | -24.79423 | -47.14288 | 9028 ft | 101 kts | 33° |
| 2026-05-06 21:48 | -24.78830 | -47.13878 | 9030 ft | 101 kts | 33° |
| 2026-05-06 21:48 | -24.78236 | -47.13470 | 9033 ft | 101 kts | 33° |
| 2026-05-06 21:49 | -24.77644 | -47.13069 | 9046 ft | 100 kts | 33° |
| 2026-05-06 21:49 | -24.77053 | -47.12670 | 9052 ft | 100 kts | 33° |
| 2026-05-06 21:49 | -24.76464 | -47.12271 | 9054 ft | 100 kts | 33° |
| 2026-05-06 21:49 | -24.75872 | -47.11872 | 9054 ft | 100 kts | 33° |
| 2026-05-06 21:50 | -24.75278 | -47.11470 | 9054 ft | 100 kts | 33° |
| 2026-05-06 21:50 | -24.74683 | -47.11068 | 9054 ft | 101 kts | 33° |
| 2026-05-06 21:50 | -24.74087 | -47.10666 | 9054 ft | 101 kts | 33° |
| 2026-05-06 21:50 | -24.73492 | -47.10267 | 9057 ft | 100 kts | 33° |
| 2026-05-06 21:51 | -24.72898 | -47.09868 | 9057 ft | 101 kts | 33° |
| 2026-05-06 21:51 | -24.72301 | -47.09467 | 9058 ft | 101 kts | 33° |
| 2026-05-06 21:51 | -24.71705 | -47.09067 | 9057 ft | 101 kts | 33° |
| 2026-05-06 21:51 | -24.71110 | -47.08668 | 9057 ft | 101 kts | 33° |
| 2026-05-06 21:52 | -24.70512 | -47.08267 | 9057 ft | 101 kts | 33° |
| 2026-05-06 21:52 | -24.69915 | -47.07866 | 9057 ft | 101 kts | 33° |
| 2026-05-06 21:52 | -24.69319 | -47.07466 | 9056 ft | 101 kts | 33° |
| 2026-05-06 21:52 | -24.68722 | -47.07065 | 9055 ft | 101 kts | 33° |
| 2026-05-06 21:53 | -24.68125 | -47.06664 | 9055 ft | 101 kts | 33° |
| 2026-05-06 21:53 | -24.67526 | -47.06263 | 9055 ft | 101 kts | 33° |
| 2026-05-06 21:53 | -24.66929 | -47.05862 | 9056 ft | 101 kts | 33° |
| 2026-05-06 21:53 | -24.66334 | -47.05462 | 9056 ft | 101 kts | 33° |
| 2026-05-06 21:54 | -24.65736 | -47.05061 | 9055 ft | 101 kts | 33° |
| 2026-05-06 21:54 | -24.65140 | -47.04661 | 9056 ft | 101 kts | 33° |
| 2026-05-06 21:54 | -24.64540 | -47.04258 | 9038 ft | 102 kts | 33° |
| 2026-05-06 21:54 | -24.63926 | -47.03846 | 9009 ft | 104 kts | 33° |
| 2026-05-06 21:55 | -24.63311 | -47.03432 | 8999 ft | 104 kts | 33° |
| 2026-05-06 21:55 | -24.62698 | -47.03020 | 8996 ft | 103 kts | 33° |
| 2026-05-06 21:55 | -24.62092 | -47.02612 | 8996 ft | 102 kts | 33° |
| 2026-05-06 21:55 | -24.61487 | -47.02206 | 8997 ft | 102 kts | 33° |
| 2026-05-06 21:56 | -24.60887 | -47.01803 | 8999 ft | 101 kts | 33° |
| 2026-05-06 21:56 | -24.60286 | -47.01400 | 9000 ft | 101 kts | 33° |
| 2026-05-06 21:56 | -24.59689 | -47.00999 | 9002 ft | 101 kts | 33° |
| 2026-05-06 21:56 | -24.59165 | -47.00648 | 9002 ft | 101 kts | 33° |
| 2026-05-06 21:57 | -24.58566 | -47.00248 | 9002 ft | 101 kts | 32° |
| 2026-05-06 21:57 | -24.57962 | -46.99858 | 9001 ft | 101 kts | 32° |
| 2026-05-06 21:57 | -24.57357 | -46.99468 | 9001 ft | 101 kts | 32° |
| 2026-05-06 21:57 | -24.56753 | -46.99079 | 9002 ft | 101 kts | 32° |
| 2026-05-06 21:58 | -24.56148 | -46.98690 | 9002 ft | 101 kts | 32° |
| 2026-05-06 21:58 | -24.55543 | -46.98300 | 9002 ft | 101 kts | 32° |
| 2026-05-06 21:58 | -24.54938 | -46.97910 | 9002 ft | 101 kts | 32° |
| 2026-05-06 21:58 | -24.54332 | -46.97520 | 9002 ft | 101 kts | 32° |
| 2026-05-06 21:59 | -24.53727 | -46.97131 | 9002 ft | 101 kts | 32° |
| 2026-05-06 21:59 | -24.53123 | -46.96742 | 9002 ft | 101 kts | 32° |
| 2026-05-06 21:59 | -24.52517 | -46.96352 | 9002 ft | 101 kts | 32° |
| 2026-05-06 21:59 | -24.51912 | -46.95962 | 9002 ft | 101 kts | 32° |
| 2026-05-06 22:00 | -24.51308 | -46.95573 | 9001 ft | 101 kts | 32° |
| 2026-05-06 22:00 | -24.50702 | -46.95183 | 9001 ft | 101 kts | 32° |
| 2026-05-06 22:00 | -24.50096 | -46.94793 | 9001 ft | 101 kts | 32° |
| 2026-05-06 22:00 | -24.49491 | -46.94404 | 9001 ft | 101 kts | 32° |
| 2026-05-06 22:01 | -24.48886 | -46.94014 | 9001 ft | 101 kts | 32° |
| 2026-05-06 22:01 | -24.48281 | -46.93625 | 9001 ft | 101 kts | 32° |
| 2026-05-06 22:01 | -24.47676 | -46.93235 | 9001 ft | 101 kts | 32° |
| 2026-05-06 22:01 | -24.47071 | -46.92846 | 9001 ft | 101 kts | 32° |
| 2026-05-06 22:02 | -24.46465 | -46.92456 | 9001 ft | 101 kts | 32° |
| 2026-05-06 22:02 | -24.45861 | -46.92067 | 9001 ft | 101 kts | 32° |
| 2026-05-06 22:02 | -24.45255 | -46.91677 | 9001 ft | 101 kts | 32° |
| 2026-05-06 22:02 | -24.44649 | -46.91287 | 9001 ft | 101 kts | 32° |
| 2026-05-06 22:03 | -24.44044 | -46.90898 | 9001 ft | 101 kts | 32° |
| 2026-05-06 22:03 | -24.43439 | -46.90508 | 9001 ft | 101 kts | 32° |
| 2026-05-06 22:03 | -24.42834 | -46.90119 | 9003 ft | 101 kts | 32° |
| 2026-05-06 22:03 | -24.42230 | -46.89731 | 9005 ft | 101 kts | 32° |
| 2026-05-06 22:04 | -24.41625 | -46.89342 | 9006 ft | 101 kts | 32° |
| 2026-05-06 22:04 | -24.41020 | -46.88954 | 9006 ft | 101 kts | 32° |
| 2026-05-06 22:04 | -24.40417 | -46.88566 | 9005 ft | 101 kts | 32° |
| 2026-05-06 22:04 | -24.39806 | -46.88185 | 9005 ft | 101 kts | 31° |
| 2026-05-06 22:05 | -24.39193 | -46.87807 | 9005 ft | 101 kts | 31° |
| 2026-05-06 22:05 | -24.38583 | -46.87426 | 9005 ft | 101 kts | 31° |
| 2026-05-06 22:05 | -24.37971 | -46.87049 | 9001 ft | 102 kts | 31° |
| 2026-05-06 22:05 | -24.37356 | -46.86668 | 8999 ft | 102 kts | 31° |
| 2026-05-06 22:06 | -24.36743 | -46.86287 | 8997 ft | 102 kts | 32° |
| 2026-05-06 22:06 | -24.36130 | -46.85907 | 8997 ft | 101 kts | 31° |
| 2026-05-06 22:06 | -24.35518 | -46.85524 | 8997 ft | 101 kts | 32° |
| 2026-05-06 22:06 | -24.34905 | -46.85144 | 8997 ft | 101 kts | 31° |
| 2026-05-06 22:07 | -24.34293 | -46.84765 | 8997 ft | 101 kts | 31° |
| 2026-05-06 22:07 | -24.33682 | -46.84383 | 8994 ft | 102 kts | 32° |
| 2026-05-06 22:07 | -24.33069 | -46.84002 | 8994 ft | 101 kts | 31° |
| 2026-05-06 22:07 | -24.32456 | -46.83623 | 8994 ft | 101 kts | 31° |
| 2026-05-06 22:08 | -24.31845 | -46.83240 | 8994 ft | 101 kts | 31° |
| 2026-05-06 22:08 | -24.31287 | -46.82784 | 8997 ft | 100 kts | 50° |
| 2026-05-06 22:08 | -24.30834 | -46.82219 | 9004 ft | 99 kts | 50° |
| 2026-05-06 22:08 | -24.30381 | -46.81646 | 8998 ft | 100 kts | 50° |
| 2026-05-06 22:09 | -24.29926 | -46.81069 | 8995 ft | 100 kts | 50° |
| 2026-05-06 22:09 | -24.29465 | -46.80494 | 8994 ft | 100 kts | 49° |
| 2026-05-06 22:09 | -24.28999 | -46.79926 | 8993 ft | 100 kts | 49° |
| 2026-05-06 22:09 | -24.28535 | -46.79359 | 8993 ft | 100 kts | 49° |
| 2026-05-06 22:10 | -24.28069 | -46.78790 | 8994 ft | 100 kts | 49° |
| 2026-05-06 22:10 | -24.27604 | -46.78223 | 8994 ft | 100 kts | 49° |
| 2026-05-06 22:10 | -24.27135 | -46.77651 | 8983 ft | 103 kts | 50° |
| 2026-05-06 22:10 | -24.26654 | -46.77067 | 8993 ft | 104 kts | 49° |
| 2026-05-06 22:11 | -24.26170 | -46.76484 | 9007 ft | 104 kts | 49° |
| 2026-05-06 22:11 | -24.25683 | -46.75897 | 9011 ft | 105 kts | 50° |
| 2026-05-06 22:11 | -24.25188 | -46.75306 | 9017 ft | 105 kts | 49° |
| 2026-05-06 22:11 | -24.24689 | -46.74715 | 9015 ft | 106 kts | 49° |
| 2026-05-06 22:12 | -24.24188 | -46.74120 | 9013 ft | 107 kts | 49° |
| 2026-05-06 22:12 | -24.23685 | -46.73524 | 9012 ft | 107 kts | 49° |
| 2026-05-06 22:12 | -24.23181 | -46.72925 | 9012 ft | 107 kts | 49° |
| 2026-05-06 22:12 | -24.22677 | -46.72326 | 9012 ft | 107 kts | 49° |
| 2026-05-06 22:13 | -24.22172 | -46.71727 | 9011 ft | 107 kts | 49° |
| 2026-05-06 22:13 | -24.21668 | -46.71127 | 9011 ft | 107 kts | 49° |
| 2026-05-06 22:13 | -24.21164 | -46.70529 | 9011 ft | 107 kts | 49° |
| 2026-05-06 22:13 | -24.20667 | -46.69948 | 9011 ft | 107 kts | 48° |
| 2026-05-06 22:14 | -24.20140 | -46.69343 | 9011 ft | 107 kts | 48° |
| 2026-05-06 22:14 | -24.19624 | -46.68751 | 9011 ft | 107 kts | 48° |
| 2026-05-06 22:14 | -24.19111 | -46.68162 | 9012 ft | 107 kts | 48° |
| 2026-05-06 22:14 | -24.18595 | -46.67571 | 9012 ft | 107 kts | 48° |
| 2026-05-06 22:15 | -24.18082 | -46.66982 | 9012 ft | 107 kts | 48° |
| 2026-05-06 22:15 | -24.17568 | -46.66393 | 9012 ft | 107 kts | 48° |
| 2026-05-06 22:15 | -24.17053 | -46.65804 | 9013 ft | 107 kts | 48° |
| 2026-05-06 22:15 | -24.16535 | -46.65212 | 9005 ft | 108 kts | 47° |
| 2026-05-06 22:16 | -24.16013 | -46.64619 | 9003 ft | 109 kts | 47° |
| 2026-05-06 22:16 | -24.15488 | -46.64022 | 9001 ft | 109 kts | 47° |
| 2026-05-06 22:16 | -24.14960 | -46.63425 | 8990 ft | 110 kts | 45° |
| 2026-05-06 22:16 | -24.14426 | -46.62825 | 8985 ft | 110 kts | 45° |
| 2026-05-06 22:17 | -24.13890 | -46.62222 | 8984 ft | 110 kts | 45° |
| 2026-05-06 22:17 | -24.13353 | -46.61627 | 8983 ft | 110 kts | 44° |
| 2026-05-06 22:17 | -24.12896 | -46.61130 | 8983 ft | 110 kts | 44° |
| 2026-05-06 22:17 | -24.12338 | -46.60523 | 8983 ft | 110 kts | 44° |
| 2026-05-06 22:18 | -24.11796 | -46.59934 | 8983 ft | 110 kts | 44° |
| 2026-05-06 22:18 | -24.11254 | -46.59344 | 8983 ft | 110 kts | 44° |
| 2026-05-06 22:18 | -24.10713 | -46.58756 | 8983 ft | 110 kts | 44° |
| 2026-05-06 22:18 | -24.10171 | -46.58167 | 8983 ft | 110 kts | 44° |
| 2026-05-06 22:19 | -24.09631 | -46.57579 | 8983 ft | 110 kts | 44° |
| 2026-05-06 22:19 | -24.09089 | -46.56989 | 8983 ft | 110 kts | 44° |
| 2026-05-06 22:19 | -24.08548 | -46.56400 | 8983 ft | 110 kts | 44° |
| 2026-05-06 22:19 | -24.08006 | -46.55813 | 8983 ft | 110 kts | 44° |
| 2026-05-06 22:20 | -24.07692 | -46.55091 | 8974 ft | 107 kts | 98° |
| 2026-05-06 22:20 | -24.07965 | -46.54371 | 9026 ft | 101 kts | 118° |
| 2026-05-06 22:20 | -24.08280 | -46.53665 | 9004 ft | 105 kts | 118° |
| 2026-05-06 22:20 | -24.08601 | -46.52942 | 8992 ft | 107 kts | 117° |
| 2026-05-06 22:21 | -24.08918 | -46.52206 | 8986 ft | 107 kts | 117° |
| 2026-05-06 22:21 | -24.09236 | -46.51466 | 8983 ft | 108 kts | 117° |
| 2026-05-06 22:21 | -24.09553 | -46.50729 | 8982 ft | 107 kts | 117° |
| 2026-05-06 22:21 | -24.09870 | -46.49991 | 8981 ft | 107 kts | 117° |
| 2026-05-06 22:22 | -24.10185 | -46.49249 | 8982 ft | 107 kts | 116° |
| 2026-05-06 22:22 | -24.10491 | -46.48508 | 8981 ft | 107 kts | 116° |
| 2026-05-06 22:22 | -24.10797 | -46.47764 | 8980 ft | 108 kts | 116° |
| 2026-05-06 22:22 | -24.11110 | -46.47003 | 8909 ft | 114 kts | 116° |
| 2026-05-06 22:23 | -24.11450 | -46.46181 | 8742 ft | 124 kts | 116° |
| 2026-05-06 22:23 | -24.11805 | -46.45296 | 8552 ft | 130 kts | 115° |
| 2026-05-06 22:23 | -24.12172 | -46.44372 | 8348 ft | 135 kts | 115° |
| 2026-05-06 22:23 | -24.12549 | -46.43425 | 8136 ft | 137 kts | 115° |
| 2026-05-06 22:24 | -24.12929 | -46.42466 | 7919 ft | 138 kts | 115° |
| 2026-05-06 22:24 | -24.13300 | -46.41493 | 7698 ft | 139 kts | 115° |
| 2026-05-06 22:24 | -24.13671 | -46.40514 | 7477 ft | 140 kts | 114° |
| 2026-05-06 22:24 | -24.14026 | -46.39577 | 7222 ft | 128 kts | 114° |
| 2026-05-06 22:25 | -24.14354 | -46.38703 | 6970 ft | 121 kts | 114° |
| 2026-05-06 22:25 | -24.14667 | -46.37863 | 6728 ft | 117 kts | 114° |
| 2026-05-06 22:25 | -24.14961 | -46.37050 | 6515 ft | 113 kts | 113° |
| 2026-05-06 22:25 | -24.15243 | -46.36270 | 6348 ft | 108 kts | 113° |
| 2026-05-06 22:26 | -24.15516 | -46.35518 | 6177 ft | 106 kts | 112° |
| 2026-05-06 22:26 | -24.15777 | -46.34774 | 6014 ft | 104 kts | 112° |
| 2026-05-06 22:26 | -24.16033 | -46.34038 | 5852 ft | 103 kts | 109° |
| 2026-05-06 22:26 | -24.15952 | -46.33271 | 5697 ft | 104 kts | 68° |
| 2026-05-06 22:27 | -24.15713 | -46.32531 | 5526 ft | 105 kts | 73° |
| 2026-05-06 22:27 | -24.15466 | -46.31774 | 5355 ft | 105 kts | 71° |
| 2026-05-06 22:27 | -24.15211 | -46.31041 | 5220 ft | 103 kts | 71° |
| 2026-05-06 22:27 | -24.14954 | -46.30303 | 5054 ft | 104 kts | 71° |
| 2026-05-06 22:28 | -24.14697 | -46.29564 | 4897 ft | 105 kts | 71° |
| 2026-05-06 22:28 | -24.14441 | -46.28820 | 4741 ft | 104 kts | 71° |
| 2026-05-06 22:28 | -24.14187 | -46.28079 | 4590 ft | 104 kts | 71° |
| 2026-05-06 22:28 | -24.13933 | -46.27337 | 4433 ft | 105 kts | 71° |
| 2026-05-06 22:29 | -24.13678 | -46.26593 | 4283 ft | 105 kts | 71° |
| 2026-05-06 22:29 | -24.13423 | -46.25848 | 4134 ft | 105 kts | 71° |
| 2026-05-06 22:29 | -24.13167 | -46.25105 | 3991 ft | 104 kts | 71° |
| 2026-05-06 22:29 | -24.12912 | -46.24365 | 3844 ft | 104 kts | 71° |
| 2026-05-06 22:30 | -24.12658 | -46.23626 | 3706 ft | 104 kts | 71° |
| 2026-05-06 22:30 | -24.12409 | -46.22887 | 3565 ft | 103 kts | 72° |
| 2026-05-06 22:30 | -24.12014 | -46.22250 | 3407 ft | 106 kts | 29° |
| 2026-05-06 22:30 | -24.11317 | -46.22295 | 3348 ft | 100 kts | 337° |
| 2026-05-06 22:31 | -24.10668 | -46.22548 | 3266 ft | 101 kts | 341° |
| 2026-05-06 22:31 | -24.09993 | -46.22804 | 3122 ft | 105 kts | 341° |
| 2026-05-06 22:31 | -24.09292 | -46.23070 | 2966 ft | 108 kts | 341° |
| 2026-05-06 22:31 | -24.08578 | -46.23343 | 2803 ft | 110 kts | 341° |
| 2026-05-06 22:32 | -24.07852 | -46.23621 | 2641 ft | 111 kts | 341° |
| 2026-05-06 22:32 | -24.07123 | -46.23900 | 2493 ft | 111 kts | 341° |
| 2026-05-06 22:32 | -24.06401 | -46.24177 | 2352 ft | 110 kts | 341° |
| 2026-05-06 22:32 | -24.05684 | -46.24453 | 2218 ft | 109 kts | 341° |
| 2026-05-06 22:33 | -24.04972 | -46.24727 | 2096 ft | 108 kts | 341° |
| 2026-05-06 22:33 | -24.04258 | -46.25003 | 1950 ft | 109 kts | 341° |
| 2026-05-06 22:33 | -24.03545 | -46.25285 | 1810 ft | 108 kts | 340° |
| 2026-05-06 22:33 | -24.02854 | -46.25560 | 1655 ft | 104 kts | 341° |
| 2026-05-06 22:34 | -24.02192 | -46.25828 | 1530 ft | 100 kts | 341° |
| 2026-05-06 22:34 | -24.01548 | -46.26089 | 1459 ft | 99 kts | 340° |
| 2026-05-06 22:34 | -24.00908 | -46.26343 | 1453 ft | 97 kts | 340° |
| 2026-05-06 22:34 | -24.00280 | -46.26594 | 1440 ft | 96 kts | 340° |
| 2026-05-06 22:35 | -23.99656 | -46.26844 | 1405 ft | 96 kts | 340° |
| 2026-05-06 22:35 | -23.99034 | -46.27093 | 1266 ft | 92 kts | 341° |
| 2026-05-06 22:35 | -23.98471 | -46.27316 | 1102 ft | 78 kts | 341° |
| 2026-05-06 22:35 | -23.97970 | -46.27516 | 976 ft | 72 kts | 341° |
| 2026-05-06 22:36 | -23.97502 | -46.27670 | 943 ft | 71 kts | 344° |
| 2026-05-06 22:36 | -23.97021 | -46.27826 | 912 ft | 75 kts | 343° |
| 2026-05-06 22:36 | -23.96529 | -46.28010 | 854 ft | 73 kts | 341° |
| 2026-05-06 22:36 | -23.96047 | -46.28212 | 752 ft | 75 kts | 339° |
| 2026-05-06 22:37 | -23.95561 | -46.28437 | 643 ft | 77 kts | 337° |
| 2026-05-06 22:37 | -23.95073 | -46.28682 | 527 ft | 78 kts | 335° |
| 2026-05-06 22:37 | -23.94586 | -46.28944 | 410 ft | 78 kts | 333° |
| 2026-05-06 22:37 | -23.94109 | -46.29220 | 286 ft | 78 kts | 332° |
| 2026-05-06 22:38 | -23.93638 | -46.29517 | 157 ft | 77 kts | 328° |
| 2026-05-06 22:38 | -23.93185 | -46.29830 | 20 ft | 73 kts | 326° |
| 2026-05-06 22:38 | -23.92849 | -46.30069 | 14 ft | 40 kts | 327° |
| 2026-05-06 22:38 | -23.92683 | -46.30196 | 14 ft | 23 kts | 316° |
| 2026-05-06 22:39 | -23.92665 | -46.30251 | 14 ft | 0 kts | 243° |
| 2026-05-06 22:39 | -23.92670 | -46.30262 | 14 ft | 7 kts | 244° |
| 2026-05-06 22:39 | -23.92696 | -46.30344 | 14 ft | 15 kts | 318° |
| 2026-05-06 22:40 | -23.92595 | -46.30416 | 14 ft | 16 kts | 329° |
| 2026-05-06 22:40 | -23.92558 | -46.30482 | 14 ft | 12 kts | 237° |
| 2026-05-06 22:40 | -23.92609 | -46.30521 | 14 ft | 0 kts | 244° |